createdAt,value
2019-03-11T00:01:42.915Z,6.80
2019-03-11T00:05:46.439Z,6.60
2019-03-11T00:09:50.057Z,5.93
2019-03-11T00:13:53.766Z,7.80
2019-03-11T00:17:57.310Z,6.73
2019-03-11T00:22:01.006Z,6.30
2019-03-11T00:26:04.708Z,5.87
2019-03-11T00:30:10.773Z,5.07
2019-03-11T00:34:14.311Z,5.10
2019-03-11T00:38:18.003Z,5.00
2019-03-11T00:42:21.546Z,5.03
2019-03-11T00:46:25.261Z,3.87
2019-03-11T00:50:28.849Z,4.90
2019-03-11T00:54:32.368Z,4.50
2019-03-11T00:58:35.971Z,4.55
2019-03-11T01:02:39.586Z,5.37
2019-03-11T01:06:43.307Z,4.43
2019-03-11T01:10:46.911Z,4.47
2019-03-11T01:14:50.471Z,5.10
2019-03-11T01:18:54.241Z,5.30
2019-03-11T01:22:57.854Z,5.45
2019-03-11T01:27:01.469Z,5.87
2019-03-11T01:31:05.295Z,5.70
2019-03-11T01:35:10.026Z,6.45
2019-03-11T01:39:13.825Z,7.50
2019-03-11T01:43:17.541Z,7.70
2019-03-11T01:47:21.277Z,8.23
2019-03-11T01:51:25.101Z,8.80
2019-03-11T01:55:28.967Z,7.87
2019-03-11T01:59:32.534Z,8.93
2019-03-11T02:03:36.246Z,8.20
2019-03-11T02:07:39.923Z,7.35
2019-03-11T02:11:43.578Z,8.23
2019-03-11T02:15:47.297Z,7.80
2019-03-11T02:19:51.005Z,6.97
2019-03-11T02:23:54.727Z,6.60
2019-03-11T02:27:58.346Z,6.60
2019-03-11T02:32:02.069Z,5.90
2019-03-11T02:36:05.780Z,5.70
2019-03-11T02:40:14.783Z,4.90
2019-03-11T02:44:18.450Z,6.72
2019-03-11T02:48:22.571Z,5.77
2019-03-11T02:52:26.379Z,6.55
2019-03-11T02:56:29.890Z,6.97
2019-03-11T03:00:33.494Z,6.60
2019-03-11T03:04:41.727Z,7.90
2019-03-11T03:08:45.257Z,7.80
2019-03-11T03:12:48.964Z,7.73
2019-03-11T03:16:52.665Z,7.67
2019-03-11T03:20:56.272Z,7.40
2019-03-11T03:25:00.459Z,8.05
2019-03-11T03:29:04.218Z,7.00
2019-03-11T03:33:09.893Z,5.95
2019-03-11T03:37:13.715Z,5.80
2019-03-11T03:41:17.229Z,5.27
2019-03-11T03:45:29.018Z,6.23
2019-03-11T03:53:35.939Z,5.20
2019-03-11T03:57:39.656Z,5.45
2019-03-11T04:01:43.331Z,4.85
2019-03-11T04:05:46.876Z,4.10
2019-03-11T04:09:50.490Z,4.15
2019-03-11T04:13:54.104Z,5.50
2019-03-11T04:17:57.720Z,4.90
2019-03-11T04:22:01.437Z,5.30
2019-03-11T04:26:05.253Z,4.53
2019-03-11T04:30:15.110Z,4.27
2019-03-11T04:34:18.835Z,5.20
2019-03-11T04:38:22.442Z,5.15
2019-03-11T04:42:27.826Z,4.87
2019-03-11T04:46:31.874Z,7.65
2019-03-11T04:50:35.451Z,8.53
2019-03-11T04:54:39.048Z,6.97
2019-03-11T04:58:42.865Z,6.45
2019-03-11T05:02:46.458Z,8.03
2019-03-11T05:06:50.195Z,7.20
2019-03-11T05:10:53.808Z,7.30
2019-03-11T05:14:57.422Z,7.00
2019-03-11T05:19:01.346Z,7.77
2019-03-11T05:23:04.960Z,7.20
2019-03-11T05:27:08.508Z,6.60
2019-03-11T05:31:12.190Z,7.47
2019-03-11T05:35:15.915Z,8.43
2019-03-11T05:39:19.515Z,7.27
2019-03-11T05:43:23.251Z,6.27
2019-03-11T05:47:26.842Z,6.40
2019-03-11T05:51:31.936Z,6.10
2019-03-11T05:55:35.816Z,6.42
2019-03-11T05:59:39.429Z,5.78
2019-03-11T06:03:43.039Z,6.05
2019-03-11T06:07:46.754Z,5.30
2019-03-11T06:11:50.367Z,5.10
2019-03-11T06:15:53.986Z,5.40
2019-03-11T06:20:02.210Z,4.57
2019-03-11T06:24:06.081Z,4.70
2019-03-11T06:28:09.737Z,4.63
2019-03-11T06:32:13.352Z,6.58
2019-03-11T06:36:16.967Z,6.40
2019-03-11T06:40:20.682Z,8.77
2019-03-11T06:44:24.295Z,5.00
2019-03-11T06:48:27.909Z,6.85
2019-03-11T06:52:31.523Z,5.55
2019-03-11T06:56:35.039Z,4.83
2019-03-11T07:00:38.650Z,5.00
2019-03-11T07:04:42.261Z,4.55
2019-03-11T07:08:45.979Z,3.65
2019-03-11T07:12:49.595Z,3.87
2019-03-11T07:16:53.616Z,5.33
2019-03-11T07:20:57.156Z,4.17
2019-03-11T07:25:01.048Z,4.78
2019-03-11T07:29:04.753Z,4.62
2019-03-11T07:33:08.374Z,3.98
2019-03-11T07:37:12.072Z,3.50
2019-03-11T07:41:15.821Z,3.77
2019-03-11T07:45:19.525Z,3.35
2019-03-11T07:49:26.210Z,4.27
2019-03-11T07:53:29.836Z,3.85
2019-03-11T07:57:33.445Z,3.25
2019-03-11T08:01:37.154Z,4.08
2019-03-11T08:05:40.868Z,4.12
2019-03-11T08:09:44.482Z,3.30
2019-03-11T08:13:48.096Z,3.85
2019-03-11T08:17:51.808Z,4.62
2019-03-11T08:21:55.636Z,3.55
2019-03-11T08:25:59.249Z,3.33
2019-03-11T08:30:02.857Z,3.80
2019-03-11T08:34:06.470Z,4.60
2019-03-11T08:38:10.084Z,3.17
2019-03-11T08:42:13.700Z,5.12
2019-03-11T08:46:17.312Z,3.58
2019-03-11T08:50:22.467Z,3.98
2019-03-11T08:54:26.995Z,2.44
2019-03-11T08:58:30.615Z,3.30
2019-03-11T09:02:34.238Z,3.50
2019-03-11T09:06:37.839Z,3.25
2019-03-11T09:10:41.461Z,3.22
2019-03-11T09:14:45.067Z,3.37
2019-03-11T09:18:49.625Z,2.83
2019-03-11T09:22:53.323Z,5.97
2019-03-11T09:26:57.036Z,3.22
2019-03-11T09:31:00.661Z,3.68
2019-03-11T09:35:05.222Z,2.80
2019-03-11T09:39:11.139Z,2.55
2019-03-11T09:43:14.771Z,2.80
2019-03-11T09:47:18.478Z,3.22
2019-03-11T09:51:22.124Z,2.67
2019-03-11T09:55:31.866Z,2.72
2019-03-11T09:59:35.467Z,2.42
2019-03-11T10:03:39.081Z,2.25
2019-03-11T10:07:42.707Z,2.80
2019-03-11T10:11:46.408Z,2.42
2019-03-11T10:15:50.023Z,3.08
2019-03-11T10:19:53.635Z,2.80
2019-03-11T10:24:00.019Z,2.20
2019-03-11T10:28:03.628Z,2.35
2019-03-11T10:32:07.341Z,2.20
2019-03-11T10:36:11.057Z,2.52
2019-03-11T10:40:22.146Z,2.12
2019-03-11T10:44:25.760Z,2.73
2019-03-11T10:48:37.031Z,2.27
2019-03-11T10:52:34.662Z,1.80
2019-03-11T10:56:38.242Z,1.75
2019-03-11T11:00:42.168Z,2.10
2019-03-11T11:04:47.928Z,1.62
2019-03-11T11:08:51.133Z,1.60
2019-03-11T11:12:54.861Z,1.87
2019-03-11T11:16:58.369Z,1.92
2019-03-11T11:21:01.969Z,2.20
2019-03-11T11:25:07.736Z,1.70
2019-03-11T11:29:11.371Z,1.82
2019-03-11T11:33:15.068Z,1.80
2019-03-11T11:37:18.735Z,1.77
2019-03-11T11:41:22.394Z,2.30
2019-03-11T11:45:28.063Z,2.00
2019-03-11T11:49:31.725Z,1.62
2019-03-11T11:53:35.392Z,1.80
2019-03-11T11:57:39.003Z,2.27
2019-03-11T12:01:42.613Z,1.70
2019-03-11T12:05:46.327Z,1.85
2019-03-11T12:09:50.189Z,2.27
2019-03-11T12:13:53.862Z,1.60
2019-03-11T12:17:57.457Z,2.08
2019-03-11T12:22:00.992Z,1.98
2019-03-11T12:26:04.818Z,2.40
2019-03-11T12:30:26.174Z,1.95
2019-03-11T12:34:29.759Z,3.10
2019-03-11T12:38:33.368Z,2.52
2019-03-11T12:42:36.913Z,2.70
2019-03-11T12:46:40.444Z,2.27
2019-03-11T12:50:44.205Z,2.30
2019-03-11T12:54:48.136Z,2.60
2019-03-11T12:58:51.756Z,2.42
2019-03-11T13:02:55.695Z,2.37
2019-03-11T13:06:59.278Z,2.17
2019-03-11T13:11:02.915Z,2.42
2019-03-11T13:15:08.753Z,2.55
2019-03-11T13:19:13.458Z,1.80
2019-03-11T13:23:17.321Z,1.70
2019-03-11T13:27:20.926Z,2.62
2019-03-11T13:31:25.576Z,2.10
2019-03-11T13:35:29.125Z,1.92
2019-03-11T13:39:32.651Z,1.67
2019-03-11T13:43:36.634Z,1.70
2019-03-11T13:47:40.338Z,1.60
2019-03-11T13:51:43.987Z,2.00
2019-03-11T13:55:47.558Z,2.10
2019-03-11T13:59:51.170Z,1.70
2019-03-11T14:03:54.781Z,2.77
2019-03-11T14:07:58.502Z,2.80
2019-03-11T14:12:02.121Z,2.40
2019-03-11T14:16:05.718Z,3.95
2019-03-11T14:20:11.583Z,2.20
2019-03-11T14:24:16.227Z,2.05
2019-03-11T14:28:19.867Z,2.42
2019-03-11T14:32:23.405Z,1.90
2019-03-11T14:36:26.969Z,1.98
2019-03-11T14:40:30.785Z,1.72
2019-03-11T14:44:34.422Z,2.02
2019-03-11T14:48:38.085Z,0.62
2019-03-11T14:52:41.848Z,0.80
2019-03-11T14:56:45.444Z,0.80
2019-03-11T15:00:49.264Z,0.70
2019-03-11T15:04:52.817Z,0.60
2019-03-11T15:08:59.668Z,0.70
2019-03-11T15:13:04.540Z,0.45
2019-03-11T15:17:08.121Z,0.35
2019-03-11T15:21:14.507Z,0.70
2019-03-11T15:25:19.135Z,0.40
2019-03-11T15:29:22.769Z,0.50
2019-03-11T15:33:26.369Z,0.50
2019-03-11T15:37:30.085Z,0.50
2019-03-11T15:41:33.696Z,0.63
2019-03-11T15:45:38.913Z,1.03
2019-03-11T15:49:42.777Z,1.10
2019-03-11T15:53:46.389Z,1.92
2019-03-11T15:57:50.106Z,1.47
2019-03-11T16:01:53.714Z,2.22
2019-03-11T16:05:57.431Z,1.87
2019-03-11T16:10:01.142Z,2.10
2019-03-11T16:14:04.801Z,2.17
2019-03-11T16:18:08.478Z,1.90
2019-03-11T16:22:22.465Z,1.85
2019-03-11T16:26:17.460Z,2.62
2019-03-11T16:30:25.126Z,2.00
2019-03-11T16:34:30.204Z,2.35
2019-03-11T16:38:33.809Z,1.76
2019-03-11T16:42:37.545Z,2.40
2019-03-11T16:46:41.351Z,2.58
2019-03-11T16:50:45.062Z,2.25
2019-03-11T16:54:48.768Z,2.67
2019-03-11T16:58:52.392Z,2.58
2019-03-11T17:02:56.133Z,2.62
2019-03-11T17:06:59.725Z,3.30
2019-03-11T17:11:03.441Z,2.90
2019-03-11T17:15:08.588Z,3.25
2019-03-11T17:19:12.200Z,2.42
2019-03-11T17:23:19.092Z,2.50
2019-03-11T17:27:22.703Z,2.22
2019-03-11T17:31:26.322Z,2.37
2019-03-11T17:35:33.124Z,5.85
2019-03-11T17:39:36.824Z,21.80
2019-03-11T17:43:40.541Z,12.30
2019-03-11T17:47:44.567Z,2.72
2019-03-11T17:51:48.232Z,5.00
2019-03-11T17:55:51.910Z,9.40
2019-03-11T17:59:55.515Z,15.78
2019-03-11T18:03:59.219Z,5.75
2019-03-11T18:08:03.046Z,4.55
2019-03-11T18:12:06.655Z,6.27
2019-03-11T18:16:10.265Z,5.53
2019-03-11T18:20:16.044Z,15.60
2019-03-11T18:24:19.993Z,12.45
2019-03-11T18:28:24.162Z,6.00
2019-03-11T18:32:27.800Z,7.60
2019-03-11T18:36:31.593Z,8.18
2019-03-11T18:40:35.227Z,5.50
2019-03-11T18:44:38.948Z,8.20
2019-03-11T18:48:42.625Z,6.20
2019-03-11T18:52:46.478Z,7.87
2019-03-11T18:56:50.114Z,7.60
2019-03-11T19:00:54.026Z,8.25
2019-03-11T19:04:57.725Z,8.43
2019-03-11T19:09:01.384Z,7.87
2019-03-11T19:13:05.496Z,9.97
2019-03-11T19:17:09.492Z,9.87
2019-03-11T19:21:13.235Z,10.20
2019-03-11T19:25:17.433Z,11.50
2019-03-11T19:29:21.081Z,11.30
2019-03-11T19:33:24.776Z,11.53
2019-03-11T19:37:28.506Z,10.88
2019-03-11T19:41:32.151Z,11.50
2019-03-11T19:45:35.832Z,15.23
2019-03-11T19:49:39.708Z,13.47
2019-03-11T19:53:43.553Z,18.50
2019-03-11T19:57:47.359Z,15.90
2019-03-11T20:01:50.993Z,27.13
2019-03-11T20:05:54.807Z,17.07
2019-03-11T20:09:58.437Z,13.07
2019-03-11T20:14:02.119Z,18.27
2019-03-11T20:18:05.850Z,11.67
2019-03-11T20:22:09.653Z,15.60
2019-03-11T20:26:14.621Z,12.00
2019-03-11T20:30:23.234Z,11.97
2019-03-11T20:34:27.215Z,9.87
2019-03-11T20:38:31.342Z,9.80
2019-03-11T20:42:35.394Z,10.03
2019-03-11T20:46:39.290Z,10.97
2019-03-11T20:50:43.178Z,10.67
2019-03-11T20:54:47.127Z,11.67
2019-03-11T20:58:52.707Z,11.80
2019-03-11T21:02:59.822Z,11.73
2019-03-11T21:07:02.464Z,11.00
2019-03-11T21:11:06.302Z,12.55
2019-03-11T21:15:12.851Z,11.67
2019-03-11T21:19:16.689Z,12.97
2019-03-11T21:23:20.404Z,13.63
2019-03-11T21:27:25.552Z,12.53
2019-03-11T21:31:29.171Z,12.33
2019-03-11T21:35:33.082Z,13.13
2019-03-11T21:39:37.086Z,12.23
2019-03-11T21:43:40.797Z,13.70
2019-03-11T21:47:45.114Z,13.27
2019-03-11T21:51:48.762Z,13.30
2019-03-11T21:55:52.529Z,12.37
2019-03-11T21:59:56.539Z,12.05
2019-03-11T22:04:01.526Z,10.53
2019-03-11T22:08:05.246Z,12.40
2019-03-11T22:12:10.596Z,12.00
2019-03-11T22:16:14.834Z,9.93
2019-03-11T22:20:19.171Z,10.50
2019-03-11T22:24:23.695Z,10.27
2019-03-11T22:28:27.290Z,10.73
2019-03-11T22:32:31.036Z,10.07
2019-03-11T22:36:34.621Z,9.10
2019-03-11T22:40:38.694Z,11.00
2019-03-11T22:44:42.409Z,9.80
2019-03-11T22:48:46.575Z,10.60
2019-03-11T22:52:50.722Z,9.73
2019-03-11T22:56:54.648Z,10.30
2019-03-11T23:01:00.953Z,10.20
2019-03-11T23:05:05.957Z,9.93
2019-03-11T23:09:10.688Z,10.57
2019-03-11T23:13:14.685Z,10.60
2019-03-11T23:17:18.334Z,10.77
2019-03-11T23:21:23.394Z,8.70
2019-03-11T23:25:27.002Z,10.47
2019-03-11T23:29:30.789Z,8.43
2019-03-11T23:33:34.649Z,10.33
2019-03-11T23:37:38.243Z,7.85
2019-03-11T23:41:42.062Z,7.77
2019-03-11T23:45:45.909Z,8.40
2019-03-11T23:49:50.198Z,7.77
2019-03-11T23:53:53.720Z,7.58
2019-03-11T23:57:57.340Z,6.83
